createdAt,value
2023-02-09T00:03:27.985Z,-4.67
2023-02-09T00:08:30.905Z,-4.56
2023-02-09T00:13:33.163Z,-4.66
2023-02-09T00:18:35.628Z,-4.69
2023-02-09T00:23:41.246Z,-4.52
2023-02-09T00:28:43.368Z,-4.87
2023-02-09T00:33:45.690Z,-4.65
2023-02-09T00:38:48.102Z,-4.69
2023-02-09T00:43:51.112Z,-4.74
2023-02-09T00:48:53.295Z,-4.54
2023-02-09T00:53:55.614Z,-4.73
2023-02-09T00:58:58.539Z,-4.67
2023-02-09T01:04:01.168Z,-4.76
2023-02-09T01:09:04.375Z,-4.66
2023-02-09T01:14:06.930Z,-4.66
2023-02-09T01:19:12.439Z,-4.63
2023-02-09T01:24:15.548Z,-4.85
2023-02-09T01:29:21.805Z,-4.99
2023-02-09T01:34:24.149Z,-4.73
2023-02-09T01:39:26.337Z,-4.71
2023-02-09T01:44:32.021Z,-4.59
2023-02-09T01:49:34.357Z,-4.80
2023-02-09T01:54:46.686Z,-4.72
2023-02-09T01:59:56.512Z,-4.66
2023-02-09T02:04:59.084Z,-4.74
2023-02-09T02:10:02.687Z,-4.84
2023-02-09T02:15:05.923Z,-4.86
2023-02-09T02:20:30.046Z,-4.84
2023-02-09T02:25:32.394Z,-4.85
2023-02-09T02:30:51.702Z,-4.82
2023-02-09T02:36:01.553Z,-5.29
2023-02-09T02:41:14.995Z,-5.12
2023-02-09T02:46:41.205Z,-5.07
2023-02-09T02:51:46.887Z,-5.41
2023-02-09T02:57:06.551Z,-5.48
2023-02-09T03:02:23.268Z,-5.61
2023-02-09T03:07:25.738Z,-5.68
2023-02-09T03:12:46.194Z,-5.28
2023-02-09T03:18:01.791Z,-5.34
2023-02-09T03:23:08.089Z,-5.11
2023-02-09T03:28:20.182Z,-5.28
2023-02-09T03:33:28.008Z,-5.10
2023-02-09T03:38:30.456Z,-5.62
2023-02-09T03:43:51.007Z,-5.73
2023-02-09T03:48:53.297Z,-5.61
2023-02-09T03:53:55.650Z,-5.59
2023-02-09T03:58:57.958Z,-5.62
2023-02-09T04:04:02.273Z,-5.75
2023-02-09T04:09:05.593Z,-5.97
2023-02-09T04:14:11.515Z,-6.04
2023-02-09T04:19:13.701Z,-6.01
2023-02-09T04:24:15.890Z,-6.17
2023-02-09T04:29:17.997Z,-6.38
2023-02-09T04:34:21.423Z,-6.45
2023-02-09T04:39:23.815Z,-6.64
2023-02-09T04:44:26.003Z,-6.67
2023-02-09T04:49:28.132Z,-6.68
2023-02-09T04:54:30.455Z,-6.69
2023-02-09T04:59:35.461Z,-6.66
2023-02-09T05:04:37.753Z,-6.84
2023-02-09T05:09:39.838Z,-6.69
2023-02-09T05:14:42.137Z,-6.73
2023-02-09T05:19:44.289Z,-6.77
2023-02-09T05:24:46.521Z,-6.83
2023-02-09T05:29:48.971Z,-6.85
2023-02-09T05:34:51.163Z,-6.62
2023-02-09T05:39:54.316Z,-6.51
2023-02-09T05:44:56.741Z,-6.49
2023-02-09T05:49:59.042Z,-6.51
2023-02-09T05:55:01.209Z,-6.37
2023-02-09T06:00:06.306Z,-6.47
2023-02-09T06:05:14.086Z,-6.24
2023-02-09T06:10:17.985Z,-6.13
2023-02-09T06:15:20.069Z,-6.00
2023-02-09T06:20:22.166Z,-5.99
2023-02-09T06:25:24.535Z,-5.99
2023-02-09T06:30:26.775Z,-5.65
2023-02-09T06:35:28.981Z,-5.64
2023-02-09T06:40:31.247Z,-5.54
2023-02-09T06:45:33.579Z,-5.32
2023-02-09T06:50:38.252Z,-4.96
2023-02-09T06:55:40.564Z,-4.85
2023-02-09T07:00:42.712Z,-4.74
2023-02-09T07:05:44.982Z,-4.98
2023-02-09T07:10:47.330Z,-4.60
2023-02-09T07:16:03.442Z,-4.76
2023-02-09T07:21:08.956Z,-5.12
2023-02-09T07:26:15.562Z,-4.74
2023-02-09T07:31:18.953Z,-3.53
2023-02-09T07:36:21.216Z,-2.43
2023-02-09T07:47:55.678Z,-1.78
2023-02-09T07:52:58.262Z,-1.57
2023-02-09T07:58:01.029Z,-2.10
2023-02-09T08:03:04.846Z,-1.72
2023-02-09T08:08:07.236Z,-0.50
2023-02-09T08:13:09.928Z,-1.48
2023-02-09T08:18:18.918Z,-1.26
2023-02-09T08:23:31.193Z,-1.22
2023-02-09T08:28:43.516Z,1.51
2023-02-09T08:33:48.299Z,2.93
2023-02-09T08:38:50.505Z,4.13
2023-02-09T08:43:52.538Z,5.27
2023-02-09T08:48:55.007Z,4.76
2023-02-09T08:53:57.140Z,4.93
2023-02-09T08:58:59.182Z,6.00
2023-02-09T09:04:03.294Z,5.57
2023-02-09T09:09:05.782Z,6.68
2023-02-09T09:14:08.218Z,6.35
2023-02-09T09:19:10.464Z,3.22
2023-02-09T09:24:12.720Z,3.40
2023-02-09T09:29:14.843Z,5.03
2023-02-09T09:34:16.949Z,5.99
2023-02-09T09:39:19.299Z,6.17
2023-02-09T09:44:35.425Z,6.50
2023-02-09T09:49:38.109Z,6.11
2023-02-09T09:54:41.901Z,3.52
2023-02-09T09:59:44.526Z,2.06
2023-02-09T10:04:48.388Z,4.55
2023-02-09T10:09:57.585Z,5.55
2023-02-09T10:15:00.143Z,6.05
2023-02-09T10:20:06.926Z,6.56
2023-02-09T10:25:50.340Z,5.04
2023-02-09T10:30:55.454Z,5.11
2023-02-09T10:36:07.810Z,6.02
2023-02-09T10:41:11.680Z,4.37
2023-02-09T10:46:20.470Z,4.76
2023-02-09T10:51:30.373Z,4.82
2023-02-09T10:56:42.028Z,3.73
2023-02-09T11:01:54.006Z,2.73
2023-02-09T11:07:02.921Z,2.94
2023-02-09T11:12:10.282Z,3.48
2023-02-09T11:17:24.667Z,3.54
2023-02-09T11:23:02.979Z,3.12
2023-02-09T11:28:18.792Z,1.15
2023-02-09T11:33:46.177Z,0.37
2023-02-09T11:39:01.816Z,0.79
2023-02-09T11:44:06.535Z,0.18
2023-02-09T11:49:18.335Z,0.52
2023-02-09T11:54:30.251Z,-0.37
2023-02-09T11:59:45.993Z,-0.14
2023-02-09T12:05:02.695Z,0.36
2023-02-09T12:10:20.323Z,0.23
2023-02-09T12:15:51.393Z,-0.38
2023-02-09T12:20:57.110Z,0.33
2023-02-09T12:26:00.714Z,0.53
2023-02-09T12:31:09.891Z,0.87
2023-02-09T12:36:14.851Z,0.97
2023-02-09T12:41:23.082Z,0.47
2023-02-09T12:46:45.616Z,0.14
2023-02-09T12:51:54.269Z,0.00
2023-02-09T12:57:17.347Z,-0.72
2023-02-09T13:02:50.797Z,-0.39
2023-02-09T13:08:11.155Z,-0.63
2023-02-09T13:13:20.677Z,-0.66
2023-02-09T13:18:59.876Z,-0.37
2023-02-09T13:24:15.166Z,-1.54
2023-02-09T13:29:22.268Z,-1.65
2023-02-09T13:34:35.540Z,-1.49
2023-02-09T13:39:41.047Z,-1.65
2023-02-09T13:44:45.740Z,-1.98
2023-02-09T13:50:21.764Z,-2.16
2023-02-09T13:55:26.792Z,-2.25
2023-02-09T14:00:41.635Z,-2.37
2023-02-09T14:05:49.954Z,-2.31
2023-02-09T14:11:06.206Z,-2.55
2023-02-09T14:16:09.705Z,-2.97
2023-02-09T14:21:12.032Z,-2.80
2023-02-09T14:26:14.413Z,-2.93
2023-02-09T14:31:26.784Z,-3.35
2023-02-09T14:36:35.191Z,-3.04
2023-02-09T14:41:37.451Z,-3.14
2023-02-09T14:46:49.914Z,-3.20
2023-02-09T14:52:03.154Z,-3.28
2023-02-09T14:57:05.557Z,-3.35
2023-02-09T15:02:19.542Z,-3.52
2023-02-09T15:07:38.049Z,-3.40
2023-02-09T15:12:40.384Z,-3.48
2023-02-09T15:17:42.637Z,-3.62
2023-02-09T15:22:44.937Z,-3.74
2023-02-09T15:27:52.765Z,-3.94
2023-02-09T15:32:55.196Z,-4.06
2023-02-09T15:38:01.635Z,-3.98
2023-02-09T15:43:38.334Z,-4.14
2023-02-09T15:48:40.638Z,-1.83
2023-02-09T15:53:43.621Z,-1.20
2023-02-09T15:58:47.048Z,-2.57
2023-02-09T16:03:49.373Z,-4.12
2023-02-09T16:08:53.629Z,-5.06
2023-02-09T16:13:55.973Z,-5.50
2023-02-09T16:18:58.184Z,-6.19
2023-02-09T16:24:05.198Z,-6.14
2023-02-09T16:29:11.831Z,-6.44
2023-02-09T16:34:15.823Z,-7.16
2023-02-09T16:39:20.408Z,-7.47
2023-02-09T16:44:26.136Z,-7.32
2023-02-09T16:50:12.106Z,-7.34
2023-02-09T16:55:35.726Z,-7.97
2023-02-09T17:00:39.372Z,-7.89
2023-02-09T17:05:48.671Z,-7.92
2023-02-09T17:10:55.350Z,-7.90
2023-02-09T17:16:06.817Z,-8.40
2023-02-09T17:21:24.116Z,-8.47
2023-02-09T17:26:26.682Z,-8.29
2023-02-09T17:31:38.315Z,-8.60
2023-02-09T17:36:46.404Z,-8.83
2023-02-09T17:41:50.164Z,-8.75
2023-02-09T17:46:53.021Z,-9.07
2023-02-09T17:51:55.404Z,-9.06
2023-02-09T17:56:57.555Z,-9.20
2023-02-09T18:01:59.859Z,-9.14
2023-02-09T18:07:02.413Z,-9.28
2023-02-09T18:12:27.653Z,-9.24
2023-02-09T18:17:30.706Z,-9.46
2023-02-09T18:22:33.062Z,-9.87
2023-02-09T18:27:35.531Z,-9.75
2023-02-09T18:32:37.624Z,-9.73
2023-02-09T18:37:39.748Z,-9.73
2023-02-09T18:42:42.233Z,-10.28
2023-02-09T18:47:44.993Z,-10.38
2023-02-09T18:52:56.391Z,-10.64
2023-02-09T18:58:01.110Z,-10.75
2023-02-09T19:03:04.648Z,-10.90
2023-02-09T19:08:07.573Z,-11.20
2023-02-09T19:13:09.745Z,-11.01
2023-02-09T19:18:11.887Z,-10.97
2023-02-09T19:23:14.345Z,-10.77
2023-02-09T19:28:16.759Z,-10.71
2023-02-09T19:33:19.066Z,-10.91
2023-02-09T19:38:21.272Z,-11.26
2023-02-09T19:43:23.493Z,-11.71
2023-02-09T19:48:25.960Z,-11.82
2023-02-09T19:53:28.295Z,-11.78
2023-02-09T19:58:30.690Z,-11.80
2023-02-09T20:03:33.044Z,-12.04
2023-02-09T20:08:36.922Z,-12.04
2023-02-09T20:13:39.824Z,-12.02
2023-02-09T20:18:43.702Z,-11.93
2023-02-09T20:23:46.802Z,-11.99
2023-02-09T20:28:49.736Z,-12.44
2023-02-09T20:33:52.438Z,-12.50
2023-02-09T20:38:55.176Z,-12.77
2023-02-09T20:44:16.070Z,-12.59
2023-02-09T20:49:18.859Z,-12.35
2023-02-09T20:54:21.293Z,-12.48
2023-02-09T20:59:23.898Z,-12.74
2023-02-09T21:04:30.414Z,-12.63
2023-02-09T21:09:32.795Z,-13.00
2023-02-09T21:14:42.113Z,-13.20
2023-02-09T21:19:45.384Z,-13.60
2023-02-09T21:24:47.779Z,-13.70
2023-02-09T21:29:50.061Z,-13.79
2023-02-09T21:34:52.306Z,-13.40
2023-02-09T21:39:55.994Z,-13.30
2023-02-09T21:44:59.791Z,-13.70
2023-02-09T21:50:02.600Z,-13.82
2023-02-09T21:55:05.434Z,-13.95
2023-02-09T22:00:09.525Z,-13.97
2023-02-09T22:05:12.098Z,-13.76
2023-02-09T22:10:15.105Z,-13.59
2023-02-09T22:15:18.209Z,-13.90
2023-02-09T22:20:20.547Z,-13.80
2023-02-09T22:25:23.097Z,-13.88
2023-02-09T22:30:26.389Z,-13.92
2023-02-09T22:35:29.414Z,-13.89
2023-02-09T22:40:31.596Z,-14.14
2023-02-09T22:45:33.682Z,-14.08
2023-02-09T22:50:36.558Z,-14.27
2023-02-09T22:55:39.166Z,-14.59
2023-02-09T23:00:41.330Z,-14.26
2023-02-09T23:05:43.381Z,-14.22
2023-02-09T23:10:45.495Z,-14.10
2023-02-09T23:15:48.030Z,-14.20
2023-02-09T23:20:50.391Z,-14.32
2023-02-09T23:25:52.662Z,-14.38
2023-02-09T23:30:54.966Z,-14.34
2023-02-09T23:35:57.188Z,-14.37
2023-02-09T23:40:59.481Z,-14.56
2023-02-09T23:46:05.895Z,-14.71
2023-02-09T23:51:20.746Z,-14.88
2023-02-09T23:56:23.779Z,-15.09
